»·PEaware :: JBU2324 KLAX-KPHX

JBU2324 :: KLAX-KPHX

FLIGHT INFORMATION

Flight Status: Arrived
Operator:
JetBlue Airways
More flights by this operator :: More flights under this callsign
Pilot: Craig H. (6968)
Aircraft: AIRBUS A319
(A319)
More flights by this aircraft type
Origin: KLAX Los Angeles Intl
United States
Destination: KPHX Phoenix Sky Harbor Intl
United States
More flights between these airports :: More routes between these airports
Route: +DOTSS2 CNERY BLH HYDRR1
File this flight plan on PilotEdge
Remarks:
Altitude:
(Current/Filed)
35,000ft
Speed:
(Current/Filed)
435kts
Departed: 20-Mar-20 06:10 PM
Arrived: 20-Mar-20 07:00 PM
Distance/Time
Traveled:
321nm/0:49
Distance/Time
To Go:
Arrived

Flight Plot

Page will automatically refresh every two minutes.

Flight plan parsing failed; only flown route is shown


Map Options




Map Legend


Flown Route
Filed Route
Departure Airport
Arrival Airport
Navaid (VOR, NDB)
Fix

Horizontal Profiles

Position Reports

Time Latitude Longitude Heading Altitude Ground
Speed
20-Mar-20 17:22 33.941041 -118.405006 85 122ft 0kts
20-Mar-20 17:23 33.941041 -118.405006 85 122ft 0kts
20-Mar-20 17:24 33.941041 -118.405006 85 122ft 0kts
20-Mar-20 17:25 33.941041 -118.405006 85 122ft 0kts
20-Mar-20 17:26 33.941041 -118.405006 85 122ft 0kts
20-Mar-20 17:27 33.941041 -118.405006 85 122ft 0kts
20-Mar-20 17:28 33.941041 -118.405006 85 122ft 0kts
20-Mar-20 17:29 33.941041 -118.405006 85 122ft 0kts
20-Mar-20 17:30 33.941041 -118.405006 85 122ft 0kts
20-Mar-20 17:31 33.941041 -118.405006 85 122ft 0kts
20-Mar-20 17:32 33.941041 -118.405006 85 122ft 0kts
20-Mar-20 17:33 33.941041 -118.405006 85 122ft 0kts
20-Mar-20 17:34 33.941041 -118.405006 85 122ft 0kts
20-Mar-20 17:35 33.941041 -118.405006 85 122ft 0kts
20-Mar-20 17:36 33.941041 -118.405006 85 122ft 0kts
20-Mar-20 17:37 33.941041 -118.405006 85 122ft 0kts
20-Mar-20 17:38 33.941041 -118.405006 85 122ft 0kts
20-Mar-20 17:39 33.941041 -118.405006 85 122ft 0kts
20-Mar-20 17:40 33.941041 -118.405006 85 122ft 0kts
20-Mar-20 17:41 33.941041 -118.405006 85 122ft 0kts
20-Mar-20 17:42 33.941041 -118.405006 85 122ft 0kts
20-Mar-20 17:43 33.941041 -118.405006 85 122ft 0kts
20-Mar-20 17:44 33.941041 -118.405006 85 122ft 0kts
20-Mar-20 17:45 33.941041 -118.405006 85 122ft 0kts
20-Mar-20 17:46 33.941041 -118.405006 85 122ft 0kts
20-Mar-20 17:47 33.941041 -118.405006 85 122ft 0kts
20-Mar-20 17:48 33.941041 -118.405006 85 122ft 0kts
20-Mar-20 17:49 33.941041 -118.405006 85 122ft 0kts
20-Mar-20 17:50 33.941041 -118.405006 85 122ft 0kts
20-Mar-20 17:51 33.941041 -118.405006 85 122ft 0kts
20-Mar-20 17:52 33.941041 -118.405007 85 122ft 0kts
20-Mar-20 17:53 33.941041 -118.405007 85 122ft 0kts
20-Mar-20 17:54 33.941041 -118.405007 85 122ft 0kts
20-Mar-20 17:55 33.941041 -118.405005 85 122ft 0kts
20-Mar-20 17:56 33.941083 -118.405624 148 123ft 2kts
20-Mar-20 17:57 33.941224 -118.405667 173 123ft 0kts
20-Mar-20 17:58 33.941105 -118.405646 171 123ft 3kts
20-Mar-20 17:59 33.939987 -118.405472 172 124ft 0kts
20-Mar-20 18:00 33.938575 -118.405241 168 124ft 14kts
20-Mar-20 18:01 33.938944 -118.398456 82 114ft 26kts
20-Mar-20 18:02 33.939885 -118.389041 83 104ft 29kts
20-Mar-20 18:03 33.940670 -118.381517 84 101ft 0kts
20-Mar-20 18:04 33.940721 -118.380761 94 101ft 5kts
20-Mar-20 18:05 33.940714 -118.380696 99 101ft 0kts
20-Mar-20 18:06 33.940690 -118.380591 109 101ft 2kts
20-Mar-20 18:07 33.939802 -118.380521 264 101ft 0kts
20-Mar-20 18:08 33.939757 -118.381020 263 101ft 31kts
20-Mar-20 18:09 33.934837 -118.429061 262 2067ft 184kts
20-Mar-20 18:10 33.908601 -118.493079 231 4412ft 255kts
20-Mar-20 18:11 33.858700 -118.555967 200 7264ft 269kts
20-Mar-20 18:12 33.783897 -118.544002 168 10586ft 288kts
20-Mar-20 18:13 33.699655 -118.508469 135 12112ft 363kts
20-Mar-20 18:14 33.658000 -118.389388 111 14252ft 407kts
20-Mar-20 18:15 33.643948 -118.250175 93 16637ft 436kts
20-Mar-20 18:16 33.644051 -118.103339 94 17414ft 446kts
20-Mar-20 18:17 33.643975 -117.953262 94 19530ft 461kts
20-Mar-20 18:18 33.640391 -117.797767 103 21301ft 473kts
20-Mar-20 18:19 33.606674 -117.645071 112 22920ft 481kts
20-Mar-20 18:20 33.567957 -117.488796 113 24351ft 495kts
20-Mar-20 18:21 33.529775 -117.334551 115 26605ft 487kts
20-Mar-20 18:22 33.502965 -117.173236 99 28205ft 509kts
20-Mar-20 18:23 33.501012 -117.001521 98 29366ft 522kts
20-Mar-20 18:24 33.498514 -116.825727 98 30725ft 528kts
20-Mar-20 18:25 33.495665 -116.649692 99 32113ft 531kts
20-Mar-20 18:26 33.492583 -116.472903 100 33438ft 533kts
20-Mar-20 18:27 33.489699 -116.294985 100 34663ft 533kts
20-Mar-20 18:28 33.487722 -116.117294 96 35121ft 544kts
20-Mar-20 18:29 33.513416 -115.932848 76 35127ft 579kts
20-Mar-20 18:30 33.568015 -115.750901 74 35126ft 580kts
20-Mar-20 18:31 33.620988 -115.568600 76 35125ft 579kts
20-Mar-20 18:32 33.649388 -115.381761 96 35140ft 562kts
20-Mar-20 18:33 33.634086 -115.199644 115 35134ft 535kts
20-Mar-20 18:34 33.602965 -115.024566 104 35128ft 552kts
20-Mar-20 18:35 33.597887 -114.838575 100 34203ft 556kts
20-Mar-20 18:36 33.576836 -114.658575 112 32321ft 536kts
20-Mar-20 18:37 33.542706 -114.487695 112 29635ft 524kts
20-Mar-20 18:38 33.509072 -114.317552 111 27251ft 521kts
20-Mar-20 18:39 33.475772 -114.148933 110 25511ft 519kts
20-Mar-20 18:40 33.442193 -113.981054 110 25136ft 518kts
20-Mar-20 18:41 33.408394 -113.813164 110 25135ft 518kts
20-Mar-20 18:42 33.374725 -113.647119 110 24493ft 500kts
20-Mar-20 18:43 33.342312 -113.487442 109 22976ft 486kts
20-Mar-20 18:44 33.314909 -113.333702 107 21735ft 450kts
20-Mar-20 18:45 33.291198 -113.192056 105 20410ft 432kts
20-Mar-20 18:46 33.274618 -113.051850 95 18338ft 422kts
20-Mar-20 18:47 33.277819 -112.914644 91 16256ft 409kts
20-Mar-20 18:48 33.293656 -112.782946 66 14145ft 399kts
20-Mar-20 18:49 33.336460 -112.670933 65 11810ft 351kts
20-Mar-20 18:50 33.374030 -112.572620 64 9461ft 301kts
20-Mar-20 18:51 33.405654 -112.489223 66 8412ft 268kts
20-Mar-20 18:52 33.428518 -112.406481 87 6345ft 255kts
20-Mar-20 18:53 33.429475 -112.323008 91 5859ft 249kts
20-Mar-20 18:54 33.429296 -112.239351 91 4568ft 250kts
20-Mar-20 18:55 33.429094 -112.161883 91 3287ft 207kts
20-Mar-20 18:56 33.428969 -112.103409 91 2317ft 150kts
20-Mar-20 18:58 33.428781 -112.053935 89 1533ft 147kts
20-Mar-20 18:59 33.428843 -112.008989 90 1122ft 79kts
20-Mar-20 19:00 33.429832 -112.001938 305 1124ft 8kts
20-Mar-20 19:01 33.431294 -112.006304 1 1127ft 18kts
20-Mar-20 19:02 33.433661 -112.010042 352 1128ft 13kts
20-Mar-20 19:03 33.434189 -112.009301 76 1129ft 0kts

Navigation Log

Ident Type
Flight plan parsing failed, navigation log unavailable